Time;durP1;ratioP1;P1;durP2;ratioP2;P2;SDS_P1;SDS_P2;PMS_P1;PMS_P2;Temp;Humidity;BMP_temperature;BMP_pressure;BME280_temperature;BME280_humidity;BME280_pressure;Samples;Min_cycle;Max_cycle;Signal;HPM_P1;HPM_P2
2023/08/04 00:04:33;;;;;;;15.70;7.43;;;;;;;;;;10325604;28;20022;-80
2023/08/04 00:09:33;;;;;;;12.90;8.45;;;;;;;;;;10342649;28;20014;-82
2023/08/04 00:14:33;;;;;;;13.07;9.67;;;;;;;;;;10322780;28;20482;-79
2023/08/04 00:19:35;;;;;;;13.50;8.30;;;;;;;;;;10322598;28;20015;-84
2023/08/04 00:24:35;;;;;;;12.10;8.82;;;;;;;;;;10324280;28;20022;-81
2023/08/04 00:29:36;;;;;;;12.35;8.88;;;;;;;;;;10341473;28;20015;-83
2023/08/04 00:34:38;;;;;;;13.47;8.83;;;;;;;;;;10329102;28;20039;-81
2023/08/04 00:39:38;;;;;;;15.75;8.40;;;;;;;;;;10338547;28;20033;-80
2023/08/04 00:44:39;;;;;;;14.85;8.27;;;;;;;;;;10355574;28;20149;-79
2023/08/04 00:49:40;;;;;;;14.18;9.25;;;;;;;;;;10369408;28;20469;-79
2023/08/04 00:54:41;;;;;;;14.27;9.10;;;;;;;;;;10336186;28;20021;-78
2023/08/04 00:59:41;;;;;;;12.00;9.30;;;;;;;;;;10318876;28;20738;-82
2023/08/04 01:04:42;;;;;;;16.00;11.17;;;;;;;;;;10346070;28;20094;-80
2023/08/04 01:10:13;;;;;;;16.35;10.25;;;;;;;;;;10347816;28;20029;-80
2023/08/04 01:15:13;;;;;;;13.18;9.88;;;;;;;;;;10306981;28;20023;-80
2023/08/04 01:20:15;;;;;;;13.88;9.35;;;;;;;;;;10335044;28;20021;-82
2023/08/04 01:25:16;;;;;;;14.82;8.90;;;;;;;;;;10309572;28;20026;-81
2023/08/04 01:30:18;;;;;;;16.90;9.98;;;;;;;;;;10314618;28;20026;-86
2023/08/04 01:35:18;;;;;;;11.45;7.57;;;;;;;;;;10317746;28;20018;-79
2023/08/04 01:40:19;;;;;;;18.67;10.87;;;;;;;;;;10332547;28;20019;-82
2023/08/04 01:45:19;;;;;;;13.07;9.87;;;;;;;;;;10316147;28;20331;-79
2023/08/04 01:50:19;;;;;;;12.43;9.25;;;;;;;;;;10296189;28;20797;-78
2023/08/04 01:55:21;;;;;;;13.93;9.57;;;;;;;;;;10327151;28;20021;-83
2023/08/04 02:00:21;;;;;;;13.43;8.98;;;;;;;;;;10316998;28;20041;-83
2023/08/04 02:05:22;;;;;;;17.30;9.90;;;;;;;;;;10318323;28;20030;-81
2023/08/04 02:10:23;;;;;;;15.45;10.48;;;;;;;;;;10311381;28;20079;-78
2023/08/04 02:15:24;;;;;;;12.18;9.45;;;;;;;;;;10336713;28;20015;-78
2023/08/04 02:20:24;;;;;;;13.35;10.55;;;;;;;;;;10353622;28;20030;-79
2023/08/04 02:25:26;;;;;;;12.50;9.27;;;;;;;;;;10333506;28;20116;-80
2023/08/04 02:30:26;;;;;;;13.10;10.53;;;;;;;;;;10311810;28;20037;-81
2023/08/04 02:35:26;;;;;;;14.70;10.60;;;;;;;;;;10294138;28;20648;-81
2023/08/04 02:40:37;;;;;;;14.18;10.43;;;;;;;;;;10329246;28;20073;-82
2023/08/04 02:45:37;;;;;;;15.27;10.25;;;;;;;;;;10322321;28;20063;-79
2023/08/04 02:50:46;;;;;;;19.08;12.00;;;;;;;;;;10334926;28;20401;-81
2023/08/04 02:55:56;;;;;;;15.52;11.85;;;;;;;;;;10328028;28;20106;-82
2023/08/04 03:00:59;;;;;;;28.52;12.07;;;;;;;;;;10305418;28;20031;-83
2023/08/04 03:06:00;;;;;;;16.75;12.10;;;;;;;;;;10329039;28;20439;-79
2023/08/04 03:11:00;;;;;;;14.63;10.70;;;;;;;;;;10306634;28;20373;-81
2023/08/04 03:16:04;;;;;;;17.20;12.68;;;;;;;;;;10295528;28;20026;-83
2023/08/04 03:21:04;;;;;;;16.85;11.65;;;;;;;;;;10325968;28;20022;-81
2023/08/04 03:26:05;;;;;;;17.27;11.60;;;;;;;;;;10330757;28;20030;-79
2023/08/04 03:31:05;;;;;;;18.35;11.43;;;;;;;;;;10334005;28;20560;-83
2023/08/04 03:36:05;;;;;;;16.03;11.80;;;;;;;;;;10330138;28;20033;-80
2023/08/04 03:41:06;;;;;;;16.63;12.23;;;;;;;;;;10339020;28;20127;-83
2023/08/04 03:46:06;;;;;;;16.92;12.70;;;;;;;;;;10311664;28;20051;-82
2023/08/04 03:51:06;;;;;;;17.58;12.27;;;;;;;;;;10268296;28;20031;-79
2023/08/04 03:56:10;;;;;;;18.00;12.45;;;;;;;;;;10269638;28;20050;-83
2023/08/04 04:01:12;;;;;;;17.85;11.43;;;;;;;;;;10272433;28;20523;-83
2023/08/04 04:06:13;;;;;;;19.40;12.60;;;;;;;;;;10270384;28;20026;-81
2023/08/04 04:11:14;;;;;;;16.42;12.48;;;;;;;;;;10267613;28;20027;-81
2023/08/04 04:16:15;;;;;;;14.57;11.98;;;;;;;;;;10248096;28;20037;-79
2023/08/04 04:21:15;;;;;;;15.35;12.18;;;;;;;;;;10281262;28;20034;-83
2023/08/04 04:26:15;;;;;;;20.03;11.37;;;;;;;;;;10259032;28;20088;-81
2023/08/04 04:31:16;;;;;;;17.13;11.80;;;;;;;;;;10262289;28;20026;-83
2023/08/04 04:36:17;;;;;;;16.37;12.73;;;;;;;;;;10262802;28;20496;-80
2023/08/04 04:41:19;;;;;;;16.42;12.82;;;;;;;;;;10271702;28;20022;-86
2023/08/04 04:46:21;;;;;;;14.93;11.45;;;;;;;;;;10301457;28;20050;-84
2023/08/04 04:51:21;;;;;;;18.17;13.50;;;;;;;;;;10315406;28;20057;-87
2023/08/04 04:56:22;;;;;;;15.27;11.37;;;;;;;;;;10325206;28;20054;-86
2023/08/04 05:01:22;;;;;;;18.50;12.60;;;;;;;;;;10319611;28;20284;-79
2023/08/04 05:06:23;;;;;;;14.82;11.70;;;;;;;;;;10321591;28;20100;-79
2023/08/04 05:11:25;;;;;;;18.10;11.60;;;;;;;;;;10314929;28;20041;-83
2023/08/04 05:16:25;;;;;;;17.08;12.18;;;;;;;;;;10326353;28;20508;-83
2023/08/04 05:21:25;;;;;;;18.15;11.63;;;;;;;;;;10341447;28;20086;-78
2023/08/04 05:26:25;;;;;;;14.90;11.67;;;;;;;;;;10322921;28;20018;-77
2023/08/04 05:31:27;;;;;;;16.52;10.73;;;;;;;;;;10320625;28;20018;-78
2023/08/04 05:36:27;;;;;;;12.35;9.93;;;;;;;;;;10323931;28;20057;-80
2023/08/04 05:41:28;;;;;;;13.80;9.67;;;;;;;;;;10336012;28;20018;-76
2023/08/04 05:46:28;;;;;;;16.92;9.57;;;;;;;;;;10331510;28;20051;-79
2023/08/04 05:51:29;;;;;;;14.48;10.88;;;;;;;;;;10326293;28;20032;-78
2023/08/04 05:56:29;;;;;;;14.90;10.35;;;;;;;;;;10306510;28;20065;-79
2023/08/04 06:01:29;;;;;;;16.85;9.95;;;;;;;;;;10326756;28;20030;-80
2023/08/04 06:06:29;;;;;;;18.60;10.90;;;;;;;;;;10345691;28;20030;-81
2023/08/04 06:11:30;;;;;;;13.05;9.63;;;;;;;;;;10327102;28;20448;-81
2023/08/04 06:16:30;;;;;;;15.10;8.43;;;;;;;;;;10335573;28;20083;-79
2023/08/04 06:21:35;;;;;;;14.23;8.70;;;;;;;;;;10344020;28;20018;-78
2023/08/04 06:26:35;;;;;;;12.55;8.63;;;;;;;;;;10321495;28;20056;-78
2023/08/04 06:31:36;;;;;;;15.07;9.30;;;;;;;;;;10310171;28;20019;-79
2023/08/04 06:36:36;;;;;;;13.60;7.72;;;;;;;;;;10338835;28;20019;-77
2023/08/04 06:41:37;;;;;;;12.35;8.07;;;;;;;;;;10315697;28;20069;-80
2023/08/04 06:46:37;;;;;;;12.07;7.72;;;;;;;;;;10323522;28;20053;-80
2023/08/04 06:51:38;;;;;;;13.65;7.07;;;;;;;;;;10322173;28;20351;-81
2023/08/04 06:56:38;;;;;;;14.23;7.80;;;;;;;;;;10312626;28;20019;-79
2023/08/04 07:01:39;;;;;;;9.15;5.68;;;;;;;;;;10342787;28;20072;-82
2023/08/04 07:06:39;;;;;;;9.15;6.18;;;;;;;;;;10318087;28;20027;-83
2023/08/04 07:11:39;;;;;;;18.55;6.65;;;;;;;;;;10325665;28;20054;-79
2023/08/04 07:16:40;;;;;;;8.70;5.40;;;;;;;;;;10343834;28;20029;-81
2023/08/04 07:21:41;;;;;;;10.05;5.90;;;;;;;;;;10323458;28;20030;-76
2023/08/04 07:26:41;;;;;;;11.00;5.18;;;;;;;;;;10334875;28;20241;-83
2023/08/04 07:31:41;;;;;;;8.13;5.65;;;;;;;;;;10324977;28;20572;-78
2023/08/04 07:36:42;;;;;;;6.83;5.47;;;;;;;;;;10319782;28;20022;-78
2023/08/04 07:41:42;;;;;;;5.35;4.85;;;;;;;;;;10324912;28;20030;-80
2023/08/04 07:46:42;;;;;;;7.40;5.07;;;;;;;;;;10311464;28;20486;-79
2023/08/04 07:51:44;;;;;;;5.13;4.20;;;;;;;;;;10323401;28;20468;-76
2023/08/04 07:56:44;;;;;;;5.80;3.95;;;;;;;;;;10321365;28;20557;-78
2023/08/04 08:01:44;;;;;;;4.75;3.97;;;;;;;;;;10357257;28;20095;-83
2023/08/04 08:06:44;;;;;;;7.65;3.83;;;;;;;;;;10323358;28;20109;-77
2023/08/04 08:11:45;;;;;;;6.97;4.32;;;;;;;;;;10344503;28;20030;-80
2023/08/04 08:16:45;;;;;;;6.35;4.10;;;;;;;;;;10320721;28;20021;-81
2023/08/04 08:21:45;;;;;;;7.85;4.35;;;;;;;;;;10315000;28;20062;-82
2023/08/04 08:26:45;;;;;;;4.40;3.78;;;;;;;;;;10313946;28;20068;-81
2023/08/04 08:31:46;;;;;;;7.93;3.95;;;;;;;;;;10322188;28;20460;-77
2023/08/04 08:36:47;;;;;;;5.72;3.80;;;;;;;;;;10322831;28;20045;-78
2023/08/04 08:41:47;;;;;;;6.35;3.72;;;;;;;;;;10320438;28;20018;-77
2023/08/04 08:46:47;;;;;;;7.10;3.73;;;;;;;;;;10318286;28;20522;-78
2023/08/04 08:51:48;;;;;;;7.57;3.85;;;;;;;;;;10326643;28;20560;-82
2023/08/04 08:56:52;;;;;;;6.32;4.40;;;;;;;;;;10330412;28;20077;-78
2023/08/04 09:01:52;;;;;;;8.95;3.50;;;;;;;;;;10326722;28;20105;-81
2023/08/04 09:06:55;;;;;;;8.27;4.38;;;;;;;;;;10336481;28;20410;-83
2023/08/04 09:11:56;;;;;;;4.53;4.03;;;;;;;;;;10316665;28;20018;-82
2023/08/04 09:16:56;;;;;;;9.07;5.00;;;;;;;;;;10316985;28;20018;-81
2023/08/04 09:21:57;;;;;;;8.75;4.25;;;;;;;;;;10333285;23;20061;-69
2023/08/04 09:26:58;;;;;;;9.10;4.15;;;;;;;;;;10320248;28;20072;-67
2023/08/04 09:31:58;;;;;;;6.33;4.27;;;;;;;;;;10320053;28;20034;-68
2023/08/04 09:36:58;;;;;;;9.07;4.30;;;;;;;;;;10298835;28;20019;-67
2023/08/04 09:41:59;;;;;;;6.55;4.18;;;;;;;;;;10307561;28;20358;-69
2023/08/04 09:47:00;;;;;;;8.52;4.47;;;;;;;;;;10311414;28;20025;-69
2023/08/04 09:52:01;;;;;;;5.90;3.83;;;;;;;;;;10313566;28;20089;-68
2023/08/04 09:57:02;;;;;;;5.63;3.90;;;;;;;;;;10318507;28;20022;-67
2023/08/04 10:02:02;;;;;;;7.10;4.00;;;;;;;;;;10313745;28;20088;-67
2023/08/04 10:07:03;;;;;;;6.70;3.63;;;;;;;;;;10306775;28;20042;-67
2023/08/04 10:12:04;;;;;;;9.27;4.47;;;;;;;;;;10302382;28;20033;-69
2023/08/04 10:17:05;;;;;;;5.90;3.80;;;;;;;;;;10295104;28;20018;-67
2023/08/04 10:22:07;;;;;;;3.95;3.55;;;;;;;;;;10311872;28;20355;-67
2023/08/04 10:27:14;;;;;;;7.80;3.90;;;;;;;;;;10313154;28;20277;-67
2023/08/04 10:32:16;;;;;;;5.15;3.83;;;;;;;;;;10300620;28;20030;-67
2023/08/04 10:37:17;;;;;;;5.25;3.95;;;;;;;;;;10311657;28;20026;-68
2023/08/04 10:42:26;;;;;;;5.65;3.70;;;;;;;;;;10302877;28;20046;-69
2023/08/04 10:47:45;;;;;;;4.88;3.83;;;;;;;;;;10315816;28;20025;-68
2023/08/04 10:52:46;;;;;;;4.72;3.88;;;;;;;;;;10292966;28;20029;-67
2023/08/04 10:57:46;;;;;;;5.85;4.55;;;;;;;;;;10329419;28;20022;-68
2023/08/04 11:02:46;;;;;;;8.65;3.92;;;;;;;;;;10307713;28;20070;-68
2023/08/04 11:07:47;;;;;;;5.00;3.58;;;;;;;;;;10322011;28;20023;-69
2023/08/04 11:12:47;;;;;;;5.93;4.50;;;;;;;;;;10306482;28;20035;-69
2023/08/04 11:17:47;;;;;;;7.57;4.05;;;;;;;;;;10316579;28;20272;-68
2023/08/04 11:22:47;;;;;;;7.97;4.40;;;;;;;;;;10320223;28;20068;-66
2023/08/04 11:27:48;;;;;;;10.52;4.97;;;;;;;;;;10318060;28;20113;-68
2023/08/04 11:32:50;;;;;;;6.87;4.40;;;;;;;;;;10305147;28;20086;-68
2023/08/04 11:37:50;;;;;;;7.40;5.00;;;;;;;;;;10303951;28;20312;-69
2023/08/04 11:42:51;;;;;;;4.97;4.40;;;;;;;;;;10317791;28;20378;-69
2023/08/04 11:47:54;;;;;;;9.48;4.90;;;;;;;;;;10318792;28;20081;-68
2023/08/04 11:52:54;;;;;;;5.85;4.63;;;;;;;;;;10322668;28;20018;-68
2023/08/04 11:57:55;;;;;;;5.20;4.20;;;;;;;;;;10324654;28;20319;-69
2023/08/04 12:02:59;;;;;;;5.40;4.22;;;;;;;;;;10305378;28;20025;-69
2023/08/04 12:08:08;;;;;;;6.32;4.80;;;;;;;;;;10314441;28;20078;-67
2023/08/04 12:13:29;;;;;;;9.00;4.75;;;;;;;;;;10321094;28;20324;-68
2023/08/04 12:18:29;;;;;;;10.05;4.30;;;;;;;;;;10309019;28;20026;-68
2023/08/04 12:23:29;;;;;;;9.20;5.47;;;;;;;;;;10321406;28;20062;-68
2023/08/04 12:28:30;;;;;;;7.27;5.10;;;;;;;;;;10310347;28;20089;-68
2023/08/04 12:33:30;;;;;;;8.57;5.50;;;;;;;;;;10328316;28;20316;-68
2023/08/04 12:38:30;;;;;;;5.95;4.93;;;;;;;;;;10315257;28;20318;-68
2023/08/04 12:43:30;;;;;;;7.38;5.60;;;;;;;;;;10314950;28;20053;-68
2023/08/04 12:48:31;;;;;;;5.82;5.03;;;;;;;;;;10314883;28;20042;-68
2023/08/04 12:53:31;;;;;;;9.68;5.38;;;;;;;;;;10312385;28;20216;-68
2023/08/04 12:58:31;;;;;;;8.85;6.10;;;;;;;;;;10311569;28;20449;-68
2023/08/04 13:03:32;;;;;;;9.10;5.25;;;;;;;;;;10297053;28;20352;-68
2023/08/04 13:08:32;;;;;;;7.05;5.90;;;;;;;;;;10310564;28;20026;-68
2023/08/04 13:13:32;;;;;;;7.60;5.72;;;;;;;;;;10311474;28;20050;-68
2023/08/04 13:18:32;;;;;;;8.00;5.82;;;;;;;;;;10311187;28;20219;-68
2023/08/04 13:23:33;;;;;;;6.68;5.90;;;;;;;;;;10311428;28;20064;-68
2023/08/04 13:28:33;;;;;;;7.87;5.30;;;;;;;;;;10315152;28;20023;-68
2023/08/04 13:33:34;;;;;;;6.95;6.15;;;;;;;;;;10315043;28;20093;-67
2023/08/04 13:38:34;;;;;;;6.35;5.38;;;;;;;;;;10320461;28;20216;-68
2023/08/04 13:43:34;;;;;;;8.23;5.50;;;;;;;;;;10317640;28;20027;-68
2023/08/04 13:48:34;;;;;;;7.28;6.15;;;;;;;;;;10317937;28;20037;-67
2023/08/04 13:53:35;;;;;;;7.70;5.63;;;;;;;;;;10287631;28;20035;-68
2023/08/04 13:58:35;;;;;;;7.45;5.97;;;;;;;;;;10311079;28;20031;-68
2023/08/04 14:03:35;;;;;;;8.77;6.25;;;;;;;;;;10322806;28;20065;-68
2023/08/04 14:08:35;;;;;;;6.32;5.70;;;;;;;;;;10318974;28;20061;-67
2023/08/04 14:13:35;;;;;;;6.85;6.15;;;;;;;;;;10307778;28;20027;-67
2023/08/04 14:18:36;;;;;;;13.82;6.63;;;;;;;;;;10316191;28;20140;-67
2023/08/04 14:23:36;;;;;;;7.70;5.82;;;;;;;;;;10318538;28;20054;-69
2023/08/04 14:28:36;;;;;;;7.00;5.75;;;;;;;;;;10303544;28;20409;-68
2023/08/04 14:33:37;;;;;;;9.65;6.15;;;;;;;;;;10307940;28;20018;-67
2023/08/04 14:38:37;;;;;;;12.88;6.28;;;;;;;;;;10296222;28;20018;-68
2023/08/04 14:43:39;;;;;;;10.15;6.07;;;;;;;;;;10309581;28;20031;-68
2023/08/04 14:48:41;;;;;;;8.18;6.43;;;;;;;;;;10320864;28;20018;-68
2023/08/04 14:53:41;;;;;;;9.20;6.70;;;;;;;;;;10318251;28;20030;-68
2023/08/04 14:58:41;;;;;;;7.25;6.07;;;;;;;;;;10318196;28;20019;-68
2023/08/04 15:03:43;;;;;;;9.45;6.80;;;;;;;;;;10307882;28;20174;-67
2023/08/04 15:08:44;;;;;;;7.70;5.90;;;;;;;;;;10304379;28;20032;-68
2023/08/04 15:13:46;;;;;;;11.93;6.60;;;;;;;;;;10314000;28;20010;-68
2023/08/04 15:18:46;;;;;;;10.77;6.80;;;;;;;;;;10300098;28;20034;-68
2023/08/04 15:23:47;;;;;;;12.20;7.20;;;;;;;;;;10319213;28;20105;-68
2023/08/04 15:28:51;;;;;;;11.30;7.25;;;;;;;;;;10315223;28;20017;-67
2023/08/04 15:33:51;;;;;;;10.50;7.13;;;;;;;;;;10324730;28;20037;-67
2023/08/04 15:38:51;;;;;;;11.93;7.50;;;;;;;;;;10299763;28;20026;-67
2023/08/04 15:43:52;;;;;;;12.50;6.65;;;;;;;;;;10300354;28;20031;-67
2023/08/04 15:48:52;;;;;;;9.23;6.82;;;;;;;;;;10299988;28;20089;-67
2023/08/04 15:53:52;;;;;;;9.13;6.32;;;;;;;;;;10299495;28;20025;-67
2023/08/04 15:58:52;;;;;;;9.90;6.57;;;;;;;;;;10300105;28;20236;-67
2023/08/04 16:03:52;;;;;;;278.48;255.05;;;;;;;;;;10300245;28;20018;-67
2023/08/04 16:08:53;;;;;;;9.02;7.00;;;;;;;;;;10299285;28;20221;-68
2023/08/04 16:13:53;;;;;;;9.35;7.53;;;;;;;;;;10299194;28;20029;-68
2023/08/04 16:18:53;;;;;;;9.10;6.57;;;;;;;;;;10298966;28;20014;-67
2023/08/04 16:23:54;;;;;;;10.75;6.90;;;;;;;;;;10298631;28;20344;-67
2023/08/04 16:28:54;;;;;;;9.10;6.85;;;;;;;;;;10297335;28;20031;-67
2023/08/04 16:33:57;;;;;;;9.90;7.18;;;;;;;;;;10279825;28;20236;-67
2023/08/04 16:38:57;;;;;;;11.35;7.97;;;;;;;;;;10298211;28;20078;-67
2023/08/04 16:43:57;;;;;;;8.73;7.57;;;;;;;;;;10298437;28;20286;-67
2023/08/04 16:48:58;;;;;;;12.48;7.40;;;;;;;;;;10298103;28;20031;-67
2023/08/04 16:53:58;;;;;;;10.70;7.60;;;;;;;;;;10297355;28;20026;-68
2023/08/04 16:58:58;;;;;;;9.77;7.32;;;;;;;;;;10297550;28;20298;-68
2023/08/04 17:03:58;;;;;;;10.38;7.53;;;;;;;;;;10297771;28;20086;-67
2023/08/04 17:08:59;;;;;;;17.90;9.82;;;;;;;;;;10296807;28;20327;-67
2023/08/04 17:13:59;;;;;;;100.22;31.70;;;;;;;;;;10303975;28;20030;-67
2023/08/04 17:19:00;;;;;;;9.98;8.07;;;;;;;;;;10314805;28;20023;-67
2023/08/04 17:24:00;;;;;;;41.13;16.38;;;;;;;;;;10303529;28;20068;-67
2023/08/04 17:29:01;;;;;;;56.03;19.07;;;;;;;;;;10324666;28;20014;-68
2023/08/04 17:34:01;;;;;;;13.98;7.53;;;;;;;;;;10319039;28;20018;-67
2023/08/04 17:39:01;;;;;;;24.20;10.70;;;;;;;;;;10315557;28;20037;-67
2023/08/04 17:44:02;;;;;;;16.63;10.13;;;;;;;;;;10310370;28;20402;-67
2023/08/04 17:49:02;;;;;;;38.42;17.15;;;;;;;;;;10312946;28;20038;-67
2023/08/04 17:54:02;;;;;;;15.68;9.40;;;;;;;;;;10319742;28;20045;-67
2023/08/04 17:59:03;;;;;;;18.75;8.65;;;;;;;;;;10303890;28;20316;-67
2023/08/04 18:04:04;;;;;;;27.73;17.40;;;;;;;;;;10309394;28;20033;-67
2023/08/04 18:09:04;;;;;;;9.65;7.60;;;;;;;;;;10311275;28;20263;-66
2023/08/04 18:14:05;;;;;;;13.33;7.80;;;;;;;;;;10312850;28;20018;-68
2023/08/04 18:19:05;;;;;;;9.15;7.22;;;;;;;;;;10312661;28;20022;-68
2023/08/04 18:24:05;;;;;;;14.50;6.53;;;;;;;;;;10306511;28;20319;-68
2023/08/04 18:29:07;;;;;;;11.75;7.95;;;;;;;;;;10309874;28;20245;-68
2023/08/04 18:34:07;;;;;;;9.57;6.83;;;;;;;;;;10301950;28;20029;-68
2023/08/04 18:39:08;;;;;;;12.13;8.55;;;;;;;;;;10311795;28;20022;-68
2023/08/04 18:44:09;;;;;;;10.50;6.57;;;;;;;;;;10316185;28;20327;-68
2023/08/04 18:49:09;;;;;;;9.55;7.07;;;;;;;;;;10312501;28;20049;-68
2023/08/04 18:54:09;;;;;;;10.05;6.43;;;;;;;;;;10308177;28;20065;-68
2023/08/04 18:59:09;;;;;;;9.52;7.07;;;;;;;;;;10318385;28;20045;-68
2023/08/04 19:04:10;;;;;;;12.52;7.97;;;;;;;;;;10318575;28;20311;-68
2023/08/04 19:09:10;;;;;;;10.52;7.55;;;;;;;;;;10315134;28;20030;-68
2023/08/04 19:14:10;;;;;;;11.10;7.57;;;;;;;;;;10324174;28;20324;-68
2023/08/04 19:19:11;;;;;;;10.68;7.38;;;;;;;;;;10312226;28;20304;-68
2023/08/04 19:24:11;;;;;;;12.67;9.30;;;;;;;;;;10306040;28;20062;-68
2023/08/04 19:29:11;;;;;;;11.93;6.60;;;;;;;;;;10313098;28;20034;-68
2023/08/04 19:34:13;;;;;;;10.18;7.10;;;;;;;;;;10308325;28;20216;-68
2023/08/04 19:39:13;;;;;;;7.93;6.22;;;;;;;;;;10307067;28;20029;-67
2023/08/04 19:44:13;;;;;;;9.63;7.00;;;;;;;;;;10306633;28;20042;-68
2023/08/04 19:49:14;;;;;;;7.78;6.30;;;;;;;;;;10303372;28;20068;-68
2023/08/04 19:54:14;;;;;;;12.63;7.07;;;;;;;;;;10312793;28;20320;-68
2023/08/04 19:59:14;;;;;;;7.43;5.80;;;;;;;;;;10312892;28;20113;-68
2023/08/04 20:04:14;;;;;;;16.27;7.07;;;;;;;;;;10322724;28;20041;-67
2023/08/04 20:09:15;;;;;;;8.82;6.15;;;;;;;;;;10318977;28;20381;-68
2023/08/04 20:14:15;;;;;;;10.17;6.47;;;;;;;;;;10322731;28;20022;-68
2023/08/04 20:19:16;;;;;;;9.93;7.22;;;;;;;;;;10312332;28;20038;-67
2023/08/04 20:24:16;;;;;;;10.43;7.23;;;;;;;;;;10320267;28;20332;-68
2023/08/04 20:29:16;;;;;;;10.83;6.57;;;;;;;;;;10314583;28;20030;-68
2023/08/04 20:34:17;;;;;;;10.18;6.70;;;;;;;;;;10320922;28;20030;-68
2023/08/04 20:39:17;;;;;;;9.73;6.03;;;;;;;;;;10307009;28;20054;-68
2023/08/04 20:44:17;;;;;;;8.20;6.28;;;;;;;;;;10323522;28;20034;-68
2023/08/04 20:49:18;;;;;;;11.60;6.90;;;;;;;;;;10312440;28;20334;-69
2023/08/04 20:54:18;;;;;;;9.98;5.80;;;;;;;;;;10291049;28;20044;-67
2023/08/04 20:59:18;;;;;;;14.27;5.68;;;;;;;;;;10314283;28;20018;-68
2023/08/04 21:04:18;;;;;;;7.15;5.55;;;;;;;;;;10319257;28;20023;-67
2023/08/04 21:09:19;;;;;;;8.90;5.40;;;;;;;;;;10305451;28;20054;-68
2023/08/04 21:14:19;;;;;;;9.93;5.65;;;;;;;;;;10311105;28;20014;-67
2023/08/04 21:19:19;;;;;;;8.00;5.72;;;;;;;;;;10314977;28;20018;-68
2023/08/04 21:24:20;;;;;;;10.55;5.15;;;;;;;;;;10311709;28;20352;-69
2023/08/04 21:29:20;;;;;;;7.78;5.43;;;;;;;;;;10326202;28;20030;-67
2023/08/04 21:34:20;;;;;;;10.35;6.00;;;;;;;;;;10306416;28;20296;-67
2023/08/04 21:39:20;;;;;;;10.63;5.78;;;;;;;;;;10314970;28;20019;-67
2023/08/04 21:44:21;;;;;;;11.48;5.53;;;;;;;;;;10311559;28;20201;-68
2023/08/04 21:49:21;;;;;;;12.40;5.22;;;;;;;;;;10311459;28;20048;-67
2023/08/04 21:54:21;;;;;;;12.68;7.65;;;;;;;;;;10309717;28;20081;-68
2023/08/04 21:59:21;;;;;;;8.98;5.88;;;;;;;;;;10313959;28;20180;-68
2023/08/04 22:04:22;;;;;;;6.83;5.57;;;;;;;;;;10318717;28;20249;-67
2023/08/04 22:09:22;;;;;;;10.38;5.97;;;;;;;;;;10308371;28;20003;-68
2023/08/04 22:14:22;;;;;;;6.80;5.55;;;;;;;;;;10306292;28;20464;-68
2023/08/04 22:19:23;;;;;;;9.03;5.50;;;;;;;;;;10312457;28;20046;-68
2023/08/04 22:24:23;;;;;;;374.27;343.73;;;;;;;;;;10310421;28;20101;-68
2023/08/04 22:29:23;;;;;;;9.37;4.90;;;;;;;;;;10307102;28;20031;-68
2023/08/04 22:34:23;;;;;;;8.95;5.95;;;;;;;;;;10315587;28;20371;-68
2023/08/04 22:39:24;;;;;;;8.57;5.72;;;;;;;;;;10319407;28;20030;-68
2023/08/04 22:44:24;;;;;;;7.90;5.05;;;;;;;;;;10307157;28;20026;-68
2023/08/04 22:49:24;;;;;;;10.32;5.50;;;;;;;;;;10312308;28;20018;-68
2023/08/04 22:54:24;;;;;;;7.15;5.68;;;;;;;;;;10285377;28;20292;-68
2023/08/04 22:59:25;;;;;;;7.75;5.55;;;;;;;;;;10317897;28;20025;-67
2023/08/04 23:04:25;;;;;;;7.17;5.20;;;;;;;;;;10318210;28;20018;-67
2023/08/04 23:09:25;;;;;;;6.38;5.43;;;;;;;;;;10310371;28;20260;-68
2023/08/04 23:14:25;;;;;;;12.93;5.40;;;;;;;;;;10317942;28;20045;-67
2023/08/04 23:19:26;;;;;;;7.53;6.47;;;;;;;;;;10318206;28;20105;-68
2023/08/04 23:24:26;;;;;;;8.10;5.57;;;;;;;;;;10315641;28;20066;-67
2023/08/04 23:29:26;;;;;;;8.63;5.57;;;;;;;;;;10316987;28;20022;-68
2023/08/04 23:34:26;;;;;;;11.07;5.28;;;;;;;;;;10321729;28;20029;-68
2023/08/04 23:39:27;;;;;;;8.27;5.57;;;;;;;;;;10321403;28;20015;-68
2023/08/04 23:44:27;;;;;;;10.50;5.72;;;;;;;;;;10313958;28;20010;-67
2023/08/04 23:49:27;;;;;;;11.43;5.90;;;;;;;;;;10322369;28;20026;-68
2023/08/04 23:54:27;;;;;;;8.25;5.50;;;;;;;;;;10321505;28;20029;-68
2023/08/04 23:59:28;;;;;;;7.57;5.47;;;;;;;;;;10324200;28;20027;-68
